sensor_id;sensor_type;location;lat;lon;timestamp;pressure;altitude;pressure_sealevel;temperature;humidity
12172;BME280;6149;52.418;13.668;2023-02-24T00:02:00;100521.41;;;6.70;100.00
12172;BME280;6149;52.418;13.668;2023-02-24T00:04:31;100522.84;;;6.79;100.00
12172;BME280;6149;52.418;13.668;2023-02-24T00:06:59;100519.34;;;6.79;100.00
12172;BME280;6149;52.418;13.668;2023-02-24T00:09:30;100521.41;;;6.70;100.00
12172;BME280;6149;52.418;13.668;2023-02-24T00:11:59;100522.72;;;6.82;100.00
12172;BME280;6149;52.418;13.668;2023-02-24T00:14:28;100517.00;;;6.71;100.00
12172;BME280;6149;52.418;13.668;2023-02-24T00:16:56;100519.84;;;6.66;100.00
12172;BME280;6149;52.418;13.668;2023-02-24T00:19:24;100516.34;;;6.66;100.00
12172;BME280;6149;52.418;13.668;2023-02-24T00:21:53;100517.88;;;6.71;100.00
12172;BME280;6149;52.418;13.668;2023-02-24T00:24:20;100523.19;;;6.70;100.00
12172;BME280;6149;52.418;13.668;2023-02-24T00:26:52;100512.56;;;6.73;100.00
12172;BME280;6149;52.418;13.668;2023-02-24T00:29:19;100502.09;;;6.71;100.00
12172;BME280;6149;52.418;13.668;2023-02-24T00:31:49;100504.06;;;6.66;100.00
12172;BME280;6149;52.418;13.668;2023-02-24T00:34:21;100503.34;;;6.63;100.00
12172;BME280;6149;52.418;13.668;2023-02-24T00:36:48;100501.56;;;6.63;100.00
12172;BME280;6149;52.418;13.668;2023-02-24T00:39:15;100493.97;;;6.56;100.00
12172;BME280;6149;52.418;13.668;2023-02-24T00:41:42;100495.81;;;6.54;100.00
12172;BME280;6149;52.418;13.668;2023-02-24T00:44:12;100497.34;;;6.59;100.00
12172;BME280;6149;52.418;13.668;2023-02-24T00:46:41;100492.25;;;6.55;100.00
12172;BME280;6149;52.418;13.668;2023-02-24T00:49:12;100493.28;;;6.51;100.00
12172;BME280;6149;52.418;13.668;2023-02-24T00:51:42;100487.19;;;6.50;100.00
12172;BME280;6149;52.418;13.668;2023-02-24T00:54:11;100482.09;;;6.46;100.00
12172;BME280;6149;52.418;13.668;2023-02-24T00:56:40;100485.63;;;6.45;100.00
12172;BME280;6149;52.418;13.668;2023-02-24T00:59:10;100480.09;;;6.52;100.00
12172;BME280;6149;52.418;13.668;2023-02-24T01:01:39;100472.50;;;6.45;100.00
12172;BME280;6149;52.418;13.668;2023-02-24T01:04:08;100468.06;;;6.47;100.00
12172;BME280;6149;52.418;13.668;2023-02-24T01:06:40;100473.31;;;6.47;100.00
12172;BME280;6149;52.418;13.668;2023-02-24T01:09:10;100464.56;;;6.46;100.00
12172;BME280;6149;52.418;13.668;2023-02-24T01:11:39;100470.44;;;6.53;100.00
12172;BME280;6149;52.418;13.668;2023-02-24T01:14:29;100462.91;;;6.44;100.00
12172;BME280;6149;52.418;13.668;2023-02-24T01:16:57;100459.44;;;6.43;100.00
12172;BME280;6149;52.418;13.668;2023-02-24T01:19:25;100464.63;;;6.45;100.00
12172;BME280;6149;52.418;13.668;2023-02-24T01:21:56;100460.41;;;6.41;100.00
12172;BME280;6149;52.418;13.668;2023-02-24T01:24:23;100455.28;;;6.37;100.00
12172;BME280;6149;52.418;13.668;2023-02-24T01:26:50;100464.00;;;6.38;100.00
12172;BME280;6149;52.418;13.668;2023-02-24T01:29:17;100461.50;;;6.35;100.00
12172;BME280;6149;52.418;13.668;2023-02-24T01:31:48;100457.31;;;6.31;100.00
12172;BME280;6149;52.418;13.668;2023-02-24T01:34:16;100469.84;;;6.23;100.00
12172;BME280;6149;52.418;13.668;2023-02-24T01:36:43;100469.38;;;6.12;100.00
12172;BME280;6149;52.418;13.668;2023-02-24T01:39:11;100467.31;;;5.96;100.00
12172;BME280;6149;52.418;13.668;2023-02-24T01:41:39;100457.00;;;5.92;100.00
12172;BME280;6149;52.418;13.668;2023-02-24T01:47:28;100457.53;;;5.77;100.00
12172;BME280;6149;52.418;13.668;2023-02-24T01:49:55;100463.13;;;5.66;100.00
12172;BME280;6149;52.418;13.668;2023-02-24T01:52:23;100464.31;;;5.57;100.00
12172;BME280;6149;52.418;13.668;2023-02-24T01:55:00;100459.00;;;5.59;100.00
12172;BME280;6149;52.418;13.668;2023-02-24T01:57:36;100445.34;;;5.51;100.00
12172;BME280;6149;52.418;13.668;2023-02-24T02:00:05;100442.59;;;5.54;100.00
12172;BME280;6149;52.418;13.668;2023-02-24T02:02:38;100435.97;;;5.44;100.00
12172;BME280;6149;52.418;13.668;2023-02-24T02:05:09;100443.34;;;5.32;100.00
12172;BME280;6149;52.418;13.668;2023-02-24T02:07:36;100443.59;;;5.25;100.00
12172;BME280;6149;52.418;13.668;2023-02-24T02:10:06;100436.44;;;5.30;100.00
12172;BME280;6149;52.418;13.668;2023-02-24T02:12:39;100435.47;;;5.32;100.00
12172;BME280;6149;52.418;13.668;2023-02-24T02:15:10;100434.66;;;5.30;100.00
12172;BME280;6149;52.418;13.668;2023-02-24T02:17:45;100433.09;;;5.25;100.00
12172;BME280;6149;52.418;13.668;2023-02-24T02:26:57;100434.88;;;5.24;100.00
12172;BME280;6149;52.418;13.668;2023-02-24T02:33:11;100439.38;;;4.94;100.00
12172;BME280;6149;52.418;13.668;2023-02-24T02:36:11;100431.19;;;4.79;100.00
12172;BME280;6149;52.418;13.668;2023-02-24T02:38:46;100437.47;;;4.73;100.00
12172;BME280;6149;52.418;13.668;2023-02-24T02:41:21;100426.91;;;4.76;100.00
12172;BME280;6149;52.418;13.668;2023-02-24T02:44:01;100438.63;;;4.64;100.00
12172;BME280;6149;52.418;13.668;2023-02-24T02:46:34;100429.66;;;4.72;100.00
12172;BME280;6149;52.418;13.668;2023-02-24T02:49:10;100428.91;;;4.68;100.00
12172;BME280;6149;52.418;13.668;2023-02-24T02:51:47;100435.56;;;4.50;100.00
12172;BME280;6149;52.418;13.668;2023-02-24T02:54:22;100433.25;;;4.41;100.00
12172;BME280;6149;52.418;13.668;2023-02-24T02:56:56;100428.28;;;4.32;100.00
12172;BME280;6149;52.418;13.668;2023-02-24T02:59:28;100431.75;;;4.32;100.00
12172;BME280;6149;52.418;13.668;2023-02-24T03:01:59;100426.66;;;4.28;100.00
12172;BME280;6149;52.418;13.668;2023-02-24T03:04:38;100429.13;;;4.32;100.00
12172;BME280;6149;52.418;13.668;2023-02-24T03:07:09;100435.22;;;4.33;100.00
12172;BME280;6149;52.418;13.668;2023-02-24T03:09:40;100429.28;;;4.28;100.00
12172;BME280;6149;52.418;13.668;2023-02-24T03:12:12;100430.03;;;4.31;100.00
12172;BME280;6149;52.418;13.668;2023-02-24T03:14:45;100427.78;;;4.19;100.00
12172;BME280;6149;52.418;13.668;2023-02-24T03:17:18;100433.06;;;4.18;100.00
12172;BME280;6149;52.418;13.668;2023-02-24T03:19:48;100437.44;;;4.17;100.00
12172;BME280;6149;52.418;13.668;2023-02-24T03:22:22;100429.69;;;4.14;100.00
12172;BME280;6149;52.418;13.668;2023-02-24T03:24:53;100429.94;;;4.07;100.00
12172;BME280;6149;52.418;13.668;2023-02-24T03:27:25;100432.50;;;4.08;100.00
12172;BME280;6149;52.418;13.668;2023-02-24T03:29:56;100430.84;;;4.06;100.00
12172;BME280;6149;52.418;13.668;2023-02-24T03:32:28;100431.88;;;4.00;100.00
12172;BME280;6149;52.418;13.668;2023-02-24T03:35:00;100427.75;;;3.91;100.00
12172;BME280;6149;52.418;13.668;2023-02-24T03:37:32;100420.88;;;3.87;100.00
12172;BME280;6149;52.418;13.668;2023-02-24T03:40:03;100410.56;;;3.83;100.00
12172;BME280;6149;52.418;13.668;2023-02-24T03:42:40;100420.38;;;3.75;100.00
12172;BME280;6149;52.418;13.668;2023-02-24T03:45:09;100408.41;;;3.67;100.00
12172;BME280;6149;52.418;13.668;2023-02-24T03:47:36;100405.78;;;3.67;100.00
12172;BME280;6149;52.418;13.668;2023-02-24T03:50:10;100406.75;;;3.63;100.00
12172;BME280;6149;52.418;13.668;2023-02-24T03:52:42;100399.09;;;3.57;100.00
12172;BME280;6149;52.418;13.668;2023-02-24T03:55:23;100408.84;;;3.51;100.00
12172;BME280;6149;52.418;13.668;2023-02-24T03:58:02;100401.81;;;3.53;100.00
12172;BME280;6149;52.418;13.668;2023-02-24T04:00:37;100407.09;;;3.51;100.00
12172;BME280;6149;52.418;13.668;2023-02-24T04:03:17;100399.16;;;3.54;100.00
12172;BME280;6149;52.418;13.668;2023-02-24T04:05:55;100399.91;;;3.59;100.00
12172;BME280;6149;52.418;13.668;2023-02-24T04:08:28;100395.63;;;3.57;100.00
12172;BME280;6149;52.418;13.668;2023-02-24T04:11:05;100387.84;;;3.54;100.00
12172;BME280;6149;52.418;13.668;2023-02-24T04:13:40;100388.66;;;3.56;100.00
12172;BME280;6149;52.418;13.668;2023-02-24T04:16:13;100386.00;;;3.57;100.00
12172;BME280;6149;52.418;13.668;2023-02-24T04:18:46;100384.44;;;3.52;100.00
12172;BME280;6149;52.418;13.668;2023-02-24T04:21:16;100379.28;;;3.49;100.00
12172;BME280;6149;52.418;13.668;2023-02-24T04:23:46;100376.53;;;3.53;100.00
12172;BME280;6149;52.418;13.668;2023-02-24T04:26:15;100366.69;;;3.63;100.00
12172;BME280;6149;52.418;13.668;2023-02-24T04:28:43;100359.34;;;3.45;100.00
12172;BME280;6149;52.418;13.668;2023-02-24T04:31:13;100363.50;;;3.52;100.00
12172;BME280;6149;52.418;13.668;2023-02-24T04:33:43;100372.28;;;3.49;100.00
12172;BME280;6149;52.418;13.668;2023-02-24T04:36:15;100365.31;;;3.50;100.00
12172;BME280;6149;52.418;13.668;2023-02-24T04:38:42;100363.59;;;3.49;100.00
12172;BME280;6149;52.418;13.668;2023-02-24T04:41:11;100363.00;;;3.39;100.00
12172;BME280;6149;52.418;13.668;2023-02-24T04:43:45;100360.38;;;3.39;100.00
12172;BME280;6149;52.418;13.668;2023-02-24T04:46:13;100351.50;;;3.45;100.00
12172;BME280;6149;52.418;13.668;2023-02-24T04:48:40;100356.78;;;3.43;100.00
12172;BME280;6149;52.418;13.668;2023-02-24T04:51:07;100353.47;;;3.36;100.00
12172;BME280;6149;52.418;13.668;2023-02-24T04:53:33;100349.88;;;3.41;100.00
12172;BME280;6149;52.418;13.668;2023-02-24T04:56:04;100345.50;;;3.41;100.00
12172;BME280;6149;52.418;13.668;2023-02-24T04:58:36;100346.66;;;3.32;100.00
12172;BME280;6149;52.418;13.668;2023-02-24T05:01:06;100342.31;;;3.31;100.00
12172;BME280;6149;52.418;13.668;2023-02-24T05:03:35;100344.56;;;3.44;100.00
12172;BME280;6149;52.418;13.668;2023-02-24T05:06:06;100333.63;;;3.31;100.00
12172;BME280;6149;52.418;13.668;2023-02-24T05:08:33;100334.59;;;3.27;100.00
12172;BME280;6149;52.418;13.668;2023-02-24T05:11:00;100332.81;;;3.29;100.00
12172;BME280;6149;52.418;13.668;2023-02-24T05:13:30;100325.72;;;3.34;100.00
12172;BME280;6149;52.418;13.668;2023-02-24T05:16:03;100321.25;;;3.36;100.00
12172;BME280;6149;52.418;13.668;2023-02-24T05:18:31;100321.19;;;3.39;100.00
12172;BME280;6149;52.418;13.668;2023-02-24T05:21:04;100323.19;;;3.31;100.00
12172;BME280;6149;52.418;13.668;2023-02-24T05:23:52;100326.41;;;3.39;100.00
12172;BME280;6149;52.418;13.668;2023-02-24T05:26:21;100325.88;;;3.28;100.00
12172;BME280;6149;52.418;13.668;2023-02-24T05:28:51;100324.69;;;3.38;100.00
12172;BME280;6149;52.418;13.668;2023-02-24T05:31:21;100316.25;;;3.30;100.00
12172;BME280;6149;52.418;13.668;2023-02-24T05:33:52;100317.13;;;3.29;100.00
12172;BME280;6149;52.418;13.668;2023-02-24T05:36:21;100312.88;;;3.25;100.00
12172;BME280;6149;52.418;13.668;2023-02-24T05:38:49;100307.63;;;3.26;100.00
12172;BME280;6149;52.418;13.668;2023-02-24T05:41:26;100300.34;;;3.36;100.00
12172;BME280;6149;52.418;13.668;2023-02-24T05:43:57;100298.06;;;3.25;100.00
12172;BME280;6149;52.418;13.668;2023-02-24T05:46:29;100299.88;;;3.23;100.00
12172;BME280;6149;52.418;13.668;2023-02-24T05:48:58;100297.22;;;3.25;100.00
12172;BME280;6149;52.418;13.668;2023-02-24T05:51:28;100288.56;;;3.23;100.00
12172;BME280;6149;52.418;13.668;2023-02-24T05:54:00;100293.00;;;3.19;100.00
12172;BME280;6149;52.418;13.668;2023-02-24T05:56:29;100292.19;;;3.17;100.00
12172;BME280;6149;52.418;13.668;2023-02-24T05:58:58;100291.44;;;3.14;100.00
12172;BME280;6149;52.418;13.668;2023-02-24T06:01:28;100286.72;;;3.26;100.00
12172;BME280;6149;52.418;13.668;2023-02-24T06:03:58;100278.19;;;3.20;100.00
12172;BME280;6149;52.418;13.668;2023-02-24T06:06:31;100277.34;;;3.19;100.00
12172;BME280;6149;52.418;13.668;2023-02-24T06:09:01;100278.13;;;3.23;100.00
12172;BME280;6149;52.418;13.668;2023-02-24T06:11:32;100273.84;;;3.20;100.00
12172;BME280;6149;52.418;13.668;2023-02-24T06:14:00;100266.03;;;3.19;100.00
12172;BME280;6149;52.418;13.668;2023-02-24T06:16:28;100270.53;;;3.14;100.00
12172;BME280;6149;52.418;13.668;2023-02-24T06:18:55;100264.31;;;3.18;100.00
12172;BME280;6149;52.418;13.668;2023-02-24T06:21:22;100267.66;;;3.23;100.00
12172;BME280;6149;52.418;13.668;2023-02-24T06:23:53;100267.91;;;3.14;100.00
12172;BME280;6149;52.418;13.668;2023-02-24T06:26:20;100263.50;;;3.16;100.00
12172;BME280;6149;52.418;13.668;2023-02-24T06:28:47;100259.22;;;3.13;100.00
12172;BME280;6149;52.418;13.668;2023-02-24T06:31:18;100255.47;;;3.23;100.00
12172;BME280;6149;52.418;13.668;2023-02-24T06:33:46;100258.19;;;3.19;100.00
12172;BME280;6149;52.418;13.668;2023-02-24T06:36:13;100253.78;;;3.21;100.00
12172;BME280;6149;52.418;13.668;2023-02-24T06:38:40;100247.09;;;3.11;100.00
12172;BME280;6149;52.418;13.668;2023-02-24T06:41:07;100251.34;;;3.15;100.00
12172;BME280;6149;52.418;13.668;2023-02-24T06:43:36;100250.38;;;3.19;100.00
12172;BME280;6149;52.418;13.668;2023-02-24T06:46:04;100246.91;;;3.18;100.00
12172;BME280;6149;52.418;13.668;2023-02-24T06:48:31;100241.38;;;3.29;100.00
12172;BME280;6149;52.418;13.668;2023-02-24T06:51:03;100241.38;;;3.29;100.00
12172;BME280;6149;52.418;13.668;2023-02-24T06:53:31;100241.38;;;3.29;100.00
12172;BME280;6149;52.418;13.668;2023-02-24T06:56:02;100242.25;;;3.28;100.00
12172;BME280;6149;52.418;13.668;2023-02-24T06:58:31;100248.38;;;3.27;100.00
12172;BME280;6149;52.418;13.668;2023-02-24T07:00:58;100238.72;;;3.30;100.00
12172;BME280;6149;52.418;13.668;2023-02-24T07:03:27;100237.78;;;3.33;100.00
12172;BME280;6149;52.418;13.668;2023-02-24T07:06:05;100235.88;;;3.36;100.00
12172;BME280;6149;52.418;13.668;2023-02-24T07:08:44;100229.97;;;3.31;100.00
12172;BME280;6149;52.418;13.668;2023-02-24T07:11:12;100223.00;;;3.32;100.00
12172;BME280;6149;52.418;13.668;2023-02-24T07:13:41;100224.59;;;3.36;100.00
12172;BME280;6149;52.418;13.668;2023-02-24T07:16:10;100222.28;;;3.55;100.00
12172;BME280;6149;52.418;13.668;2023-02-24T07:18:38;100216.47;;;3.45;100.00
12172;BME280;6149;52.418;13.668;2023-02-24T07:21:08;100218.69;;;3.59;100.00
12172;BME280;6149;52.418;13.668;2023-02-24T07:23:36;100212.88;;;3.49;100.00
12172;BME280;6149;52.418;13.668;2023-02-24T07:26:08;100216.44;;;3.47;100.00
12172;BME280;6149;52.418;13.668;2023-02-24T07:28:36;100211.03;;;3.53;99.83
12172;BME280;6149;52.418;13.668;2023-02-24T07:31:05;100201.22;;;3.59;100.00
12172;BME280;6149;52.418;13.668;2023-02-24T07:33:34;100196.75;;;3.63;100.00
12172;BME280;6149;52.418;13.668;2023-02-24T07:36:03;100201.03;;;3.65;100.00
12172;BME280;6149;52.418;13.668;2023-02-24T07:38:35;100199.38;;;3.63;99.91
12172;BME280;6149;52.418;13.668;2023-02-24T07:41:03;100190.59;;;3.65;98.49
12172;BME280;6149;52.418;13.668;2023-02-24T07:43:32;100185.66;;;3.56;96.06
12172;BME280;6149;52.418;13.668;2023-02-24T07:46:04;100181.00;;;3.66;96.43
12172;BME280;6149;52.418;13.668;2023-02-24T07:48:33;100170.78;;;3.58;93.07
12172;BME280;6149;52.418;13.668;2023-02-24T07:51:00;100188.22;;;3.58;94.97
12172;BME280;6149;52.418;13.668;2023-02-24T07:53:27;100178.50;;;3.61;92.96
12172;BME280;6149;52.418;13.668;2023-02-24T07:55:55;100173.25;;;3.63;94.42
12172;BME280;6149;52.418;13.668;2023-02-24T07:58:21;100165.34;;;3.64;94.69
12172;BME280;6149;52.418;13.668;2023-02-24T08:00:48;100161.97;;;3.61;91.34
12172;BME280;6149;52.418;13.668;2023-02-24T08:03:25;100167.81;;;3.69;90.88
12172;BME280;6149;52.418;13.668;2023-02-24T08:05:55;100157.47;;;3.66;91.41
12172;BME280;6149;52.418;13.668;2023-02-24T08:08:38;100157.03;;;3.78;91.01
12172;BME280;6149;52.418;13.668;2023-02-24T08:11:24;100144.88;;;3.77;91.68
12172;BME280;6149;52.418;13.668;2023-02-24T08:13:52;100140.69;;;3.72;93.30
12172;BME280;6149;52.418;13.668;2023-02-24T08:16:19;100141.63;;;3.71;88.37
12172;BME280;6149;52.418;13.668;2023-02-24T08:18:47;100123.06;;;3.78;90.29
12172;BME280;6149;52.418;13.668;2023-02-24T08:21:14;100124.00;;;3.76;92.61
12172;BME280;6149;52.418;13.668;2023-02-24T08:23:45;100115.91;;;3.83;89.86
12172;BME280;6149;52.418;13.668;2023-02-24T08:26:12;100123.41;;;3.94;89.06
12172;BME280;6149;52.418;13.668;2023-02-24T08:28:40;100113.84;;;3.93;90.55
12172;BME280;6149;52.418;13.668;2023-02-24T08:31:08;100112.34;;;3.86;90.16
12172;BME280;6149;52.418;13.668;2023-02-24T08:33:36;100105.41;;;3.85;89.61
12172;BME280;6149;52.418;13.668;2023-02-24T08:36:03;100106.00;;;3.93;90.15
12172;BME280;6149;52.418;13.668;2023-02-24T08:38:32;100106.59;;;4.01;88.81
12172;BME280;6149;52.418;13.668;2023-02-24T08:41:13;100098.81;;;3.99;89.00
12172;BME280;6149;52.418;13.668;2023-02-24T08:43:46;100093.97;;;3.87;89.63
12172;BME280;6149;52.418;13.668;2023-02-24T08:46:16;100089.50;;;3.91;90.23
12172;BME280;6149;52.418;13.668;2023-02-24T08:48:47;100088.75;;;3.87;90.99
12172;BME280;6149;52.418;13.668;2023-02-24T08:51:17;100080.75;;;3.92;89.43
12172;BME280;6149;52.418;13.668;2023-02-24T08:53:48;100089.09;;;4.03;88.25
12172;BME280;6149;52.418;13.668;2023-02-24T08:56:18;100070.25;;;3.93;89.18
12172;BME280;6149;52.418;13.668;2023-02-24T08:58:51;100075.38;;;3.96;90.32
12172;BME280;6149;52.418;13.668;2023-02-24T09:01:24;100063.94;;;3.99;88.52
12172;BME280;6149;52.418;13.668;2023-02-24T09:03:59;100052.72;;;3.95;90.68
12172;BME280;6149;52.418;13.668;2023-02-24T09:06:35;100062.03;;;4.04;89.12
12172;BME280;6149;52.418;13.668;2023-02-24T09:09:05;100050.38;;;4.13;91.27
12172;BME280;6149;52.418;13.668;2023-02-24T09:11:46;100052.88;;;4.16;88.23
12172;BME280;6149;52.418;13.668;2023-02-24T09:14:17;100043.94;;;4.21;89.26
12172;BME280;6149;52.418;13.668;2023-02-24T09:16:45;100041.75;;;4.34;87.78
12172;BME280;6149;52.418;13.668;2023-02-24T09:19:33;100031.34;;;4.32;88.32
12172;BME280;6149;52.418;13.668;2023-02-24T09:22:21;100036.84;;;4.25;88.92
12172;BME280;6149;52.418;13.668;2023-02-24T09:25:03;100031.34;;;4.32;90.33
12172;BME280;6149;52.418;13.668;2023-02-24T09:27:43;100013.44;;;4.45;90.15
12172;BME280;6149;52.418;13.668;2023-02-24T09:30:18;100021.50;;;4.39;87.68
12172;BME280;6149;52.418;13.668;2023-02-24T09:33:04;100011.72;;;4.44;87.00
12172;BME280;6149;52.418;13.668;2023-02-24T09:35:33;100007.75;;;4.56;88.76
12172;BME280;6149;52.418;13.668;2023-02-24T09:38:01;100003.81;;;4.67;87.12
12172;BME280;6149;52.418;13.668;2023-02-24T09:40:31;100006.63;;;4.63;85.58
12172;BME280;6149;52.418;13.668;2023-02-24T09:43:10;99991.13;;;4.57;86.89
12172;BME280;6149;52.418;13.668;2023-02-24T09:45:48;99987.50;;;4.61;86.41
12172;BME280;6149;52.418;13.668;2023-02-24T09:48:25;99986.69;;;4.59;86.03
12172;BME280;6149;52.418;13.668;2023-02-24T09:50:57;99988.34;;;4.61;86.04
12172;BME280;6149;52.418;13.668;2023-02-24T09:53:29;99978.56;;;4.66;85.67
12172;BME280;6149;52.418;13.668;2023-02-24T09:56:09;99991.69;;;4.65;86.80
12172;BME280;6149;52.418;13.668;2023-02-24T09:58:43;99982.25;;;4.61;84.67
12172;BME280;6149;52.418;13.668;2023-02-24T10:01:28;99981.00;;;4.71;85.10
12172;BME280;6149;52.418;13.668;2023-02-24T10:04:05;99973.56;;;4.82;85.05
12172;BME280;6149;52.418;13.668;2023-02-24T10:06:44;99961.31;;;4.83;82.75
12172;BME280;6149;52.418;13.668;2023-02-24T10:09:17;99960.72;;;4.76;84.46
12172;BME280;6149;52.418;13.668;2023-02-24T10:11:50;99960.03;;;4.71;84.37
12172;BME280;6149;52.418;13.668;2023-02-24T10:14:22;99953.53;;;4.81;84.61
12172;BME280;6149;52.418;13.668;2023-02-24T10:16:55;99945.22;;;4.92;83.32
12172;BME280;6149;52.418;13.668;2023-02-24T10:19:39;99941.16;;;4.85;82.65
12172;BME280;6149;52.418;13.668;2023-02-24T10:22:13;99950.28;;;4.96;82.39
12172;BME280;6149;52.418;13.668;2023-02-24T10:24:57;99949.66;;;4.90;81.86
12172;BME280;6149;52.418;13.668;2023-02-24T10:27:50;99930.88;;;4.80;81.66
12172;BME280;6149;52.418;13.668;2023-02-24T10:30:33;99922.81;;;4.85;81.90
12172;BME280;6149;52.418;13.668;2023-02-24T10:33:17;99928.59;;;4.93;81.66
12172;BME280;6149;52.418;13.668;2023-02-24T10:35:50;99920.72;;;4.93;80.87
12172;BME280;6149;52.418;13.668;2023-02-24T10:38:25;99921.34;;;4.99;83.67
12172;BME280;6149;52.418;13.668;2023-02-24T10:40:53;99907.75;;;5.12;79.69
12172;BME280;6149;52.418;13.668;2023-02-24T10:43:24;99902.88;;;5.02;79.17
12172;BME280;6149;52.418;13.668;2023-02-24T10:45:56;99894.03;;;5.05;81.06
12172;BME280;6149;52.418;13.668;2023-02-24T10:48:32;99893.06;;;5.08;79.13
12172;BME280;6149;52.418;13.668;2023-02-24T10:51:10;99885.13;;;5.09;79.48
12172;BME280;6149;52.418;13.668;2023-02-24T10:53:45;99883.47;;;5.27;78.59
12172;BME280;6149;52.418;13.668;2023-02-24T10:56:18;99873.91;;;5.26;79.02
12172;BME280;6149;52.418;13.668;2023-02-24T10:59:10;99866.00;;;5.27;78.35
12172;BME280;6149;52.418;13.668;2023-02-24T11:02:01;99870.38;;;5.27;78.62
12172;BME280;6149;52.418;13.668;2023-02-24T11:04:51;99862.97;;;5.36;79.77
12172;BME280;6149;52.418;13.668;2023-02-24T11:07:29;99857.00;;;5.33;79.08
12172;BME280;6149;52.418;13.668;2023-02-24T11:10:11;99852.69;;;5.32;76.43
12172;BME280;6149;52.418;13.668;2023-02-24T11:12:51;99845.69;;;5.32;77.21
12172;BME280;6149;52.418;13.668;2023-02-24T11:15:37;99836.16;;;5.30;78.46
12172;BME280;6149;52.418;13.668;2023-02-24T11:18:26;99822.09;;;5.32;77.31
12172;BME280;6149;52.418;13.668;2023-02-24T11:20:57;99827.25;;;5.34;79.58
12172;BME280;6149;52.418;13.668;2023-02-24T11:23:27;99821.56;;;5.24;78.79
12172;BME280;6149;52.418;13.668;2023-02-24T11:25:58;99822.72;;;5.19;78.66
12172;BME280;6149;52.418;13.668;2023-02-24T11:28:39;99820.72;;;5.24;81.16
12172;BME280;6149;52.418;13.668;2023-02-24T11:31:22;99820.00;;;5.20;84.51
12172;BME280;6149;52.418;13.668;2023-02-24T11:33:59;99824.03;;;5.09;87.19
12172;BME280;6149;52.418;13.668;2023-02-24T11:36:39;99809.13;;;4.89;92.96
12172;BME280;6149;52.418;13.668;2023-02-24T11:39:26;99809.03;;;4.72;96.42
12172;BME280;6149;52.418;13.668;2023-02-24T11:42:09;99806.84;;;4.61;99.21
12172;BME280;6149;52.418;13.668;2023-02-24T11:44:45;99798.44;;;4.53;100.00
12172;BME280;6149;52.418;13.668;2023-02-24T11:47:19;99806.50;;;4.48;100.00
12172;BME280;6149;52.418;13.668;2023-02-24T11:49:52;99796.41;;;4.39;100.00
12172;BME280;6149;52.418;13.668;2023-02-24T11:52:27;99791.97;;;4.19;100.00
12172;BME280;6149;52.418;13.668;2023-02-24T11:54:59;99790.56;;;4.11;100.00
12172;BME280;6149;52.418;13.668;2023-02-24T11:57:31;99785.06;;;3.96;100.00
12172;BME280;6149;52.418;13.668;2023-02-24T12:00:05;99782.50;;;3.95;100.00
12172;BME280;6149;52.418;13.668;2023-02-24T12:02:45;99772.50;;;3.83;100.00
12172;BME280;6149;52.418;13.668;2023-02-24T12:05:18;99769.09;;;3.81;100.00
12172;BME280;6149;52.418;13.668;2023-02-24T12:07:50;99768.50;;;3.74;100.00
12172;BME280;6149;52.418;13.668;2023-02-24T12:10:20;99766.19;;;3.66;100.00
12172;BME280;6149;52.418;13.668;2023-02-24T12:12:53;99762.22;;;3.56;100.00
12172;BME280;6149;52.418;13.668;2023-02-24T12:15:28;99757.78;;;3.58;100.00
12172;BME280;6149;52.418;13.668;2023-02-24T12:18:03;99748.25;;;3.57;100.00
12172;BME280;6149;52.418;13.668;2023-02-24T12:20:35;99743.38;;;3.48;100.00
12172;BME280;6149;52.418;13.668;2023-02-24T12:23:13;99738.31;;;3.44;100.00
12172;BME280;6149;52.418;13.668;2023-02-24T12:25:55;99739.78;;;3.51;100.00
12172;BME280;6149;52.418;13.668;2023-02-24T12:28:49;99727.28;;;3.59;100.00
12172;BME280;6149;52.418;13.668;2023-02-24T12:31:31;99729.38;;;3.49;100.00
12172;BME280;6149;52.418;13.668;2023-02-24T12:34:06;99731.25;;;3.46;100.00
12172;BME280;6149;52.418;13.668;2023-02-24T12:36:47;99719.16;;;3.43;100.00
12172;BME280;6149;52.418;13.668;2023-02-24T12:39:27;99721.47;;;3.29;100.00
12172;BME280;6149;52.418;13.668;2023-02-24T12:42:05;99721.81;;;3.20;100.00
12172;BME280;6149;52.418;13.668;2023-02-24T12:44:43;99699.03;;;3.23;100.00
12172;BME280;6149;52.418;13.668;2023-02-24T12:47:21;99706.88;;;3.23;100.00
12172;BME280;6149;52.418;13.668;2023-02-24T12:50:03;99700.91;;;3.20;100.00
12172;BME280;6149;52.418;13.668;2023-02-24T12:52:46;99705.16;;;3.22;100.00
12172;BME280;6149;52.418;13.668;2023-02-24T12:55:23;99701.25;;;3.11;100.00
12172;BME280;6149;52.418;13.668;2023-02-24T12:57:58;99686.59;;;3.07;100.00
12172;BME280;6149;52.418;13.668;2023-02-24T13:00:39;99689.16;;;3.08;100.00
12172;BME280;6149;52.418;13.668;2023-02-24T13:03:24;99676.16;;;3.07;100.00
12172;BME280;6149;52.418;13.668;2023-02-24T13:06:04;99670.13;;;3.05;100.00
12172;BME280;6149;52.418;13.668;2023-02-24T13:08:45;99669.50;;;2.98;100.00
12172;BME280;6149;52.418;13.668;2023-02-24T13:11:26;99662.63;;;2.97;100.00
12172;BME280;6149;52.418;13.668;2023-02-24T13:14:04;99664.59;;;2.90;100.00
12172;BME280;6149;52.418;13.668;2023-02-24T13:16:37;99654.44;;;2.83;100.00
12172;BME280;6149;52.418;13.668;2023-02-24T13:19:17;99652.34;;;2.92;100.00
12172;BME280;6149;52.418;13.668;2023-02-24T13:21:57;99638.72;;;2.84;100.00
12172;BME280;6149;52.418;13.668;2023-02-24T13:24:29;99635.09;;;2.88;100.00
12172;BME280;6149;52.418;13.668;2023-02-24T13:27:05;99623.66;;;2.91;100.00
12172;BME280;6149;52.418;13.668;2023-02-24T13:29:43;99616.63;;;2.93;100.00
12172;BME280;6149;52.418;13.668;2023-02-24T13:32:24;99615.97;;;2.88;100.00
12172;BME280;6149;52.418;13.668;2023-02-24T13:34:53;99606.41;;;2.87;100.00
12172;BME280;6149;52.418;13.668;2023-02-24T13:37:29;99608.88;;;2.91;100.00
12172;BME280;6149;52.418;13.668;2023-02-24T13:39:58;99598.81;;;2.81;100.00